sensor_id;sensor_type;location;lat;lon;timestamp;P1;durP1;ratioP1;P2;durP2;ratioP2
7773;SDS011;3931;42.260;23.116;2023-10-19T00:00:05;29.53;;;17.33;;
7773;SDS011;3931;42.260;23.116;2023-10-19T00:02:45;29.27;;;16.40;;
7773;SDS011;3931;42.260;23.116;2023-10-19T00:05:10;32.13;;;16.00;;
7773;SDS011;3931;42.260;23.116;2023-10-19T00:07:37;42.73;;;18.80;;
7773;SDS011;3931;42.260;23.116;2023-10-19T00:10:04;49.80;;;20.90;;
7773;SDS011;3931;42.260;23.116;2023-10-19T00:12:31;50.07;;;21.13;;
7773;SDS011;3931;42.260;23.116;2023-10-19T00:14:57;39.20;;;18.83;;
7773;SDS011;3931;42.260;23.116;2023-10-19T00:17:23;30.13;;;15.17;;
7773;SDS011;3931;42.260;23.116;2023-10-19T00:19:52;28.43;;;13.50;;
7773;SDS011;3931;42.260;23.116;2023-10-19T00:22:31;31.70;;;13.17;;
7773;SDS011;3931;42.260;23.116;2023-10-19T00:25:01;25.77;;;13.40;;
7773;SDS011;3931;42.260;23.116;2023-10-19T00:27:29;22.20;;;12.80;;
7773;SDS011;3931;42.260;23.116;2023-10-19T00:29:55;29.40;;;12.67;;
7773;SDS011;3931;42.260;23.116;2023-10-19T00:32:31;25.53;;;11.53;;
7773;SDS011;3931;42.260;23.116;2023-10-19T00:34:56;21.27;;;11.77;;
7773;SDS011;3931;42.260;23.116;2023-10-19T00:37:29;20.67;;;12.27;;
7773;SDS011;3931;42.260;23.116;2023-10-19T00:39:57;26.97;;;14.53;;
7773;SDS011;3931;42.260;23.116;2023-10-19T00:42:40;24.10;;;15.10;;
7773;SDS011;3931;42.260;23.116;2023-10-19T00:45:11;25.90;;;15.90;;
7773;SDS011;3931;42.260;23.116;2023-10-19T00:47:38;25.10;;;14.67;;
7773;SDS011;3931;42.260;23.116;2023-10-19T00:50:05;21.77;;;13.87;;
7773;SDS011;3931;42.260;23.116;2023-10-19T00:52:39;23.93;;;13.70;;
7773;SDS011;3931;42.260;23.116;2023-10-19T00:55:09;21.13;;;13.37;;
7773;SDS011;3931;42.260;23.116;2023-10-19T00:57:37;22.37;;;14.07;;
7773;SDS011;3931;42.260;23.116;2023-10-19T01:00:07;23.27;;;14.33;;
7773;SDS011;3931;42.260;23.116;2023-10-19T01:02:37;26.60;;;15.73;;
7773;SDS011;3931;42.260;23.116;2023-10-19T01:05:08;35.30;;;18.20;;
7773;SDS011;3931;42.260;23.116;2023-10-19T01:07:38;29.57;;;15.90;;
7773;SDS011;3931;42.260;23.116;2023-10-19T01:10:04;24.33;;;12.37;;
7773;SDS011;3931;42.260;23.116;2023-10-19T01:12:32;27.17;;;14.70;;
7773;SDS011;3931;42.260;23.116;2023-10-19T01:15:05;22.50;;;11.20;;
7773;SDS011;3931;42.260;23.116;2023-10-19T01:17:33;16.60;;;9.87;;
7773;SDS011;3931;42.260;23.116;2023-10-19T01:20:03;17.60;;;10.70;;
7773;SDS011;3931;42.260;23.116;2023-10-19T01:22:37;23.17;;;13.40;;
7773;SDS011;3931;42.260;23.116;2023-10-19T01:25:05;14.00;;;8.17;;
7773;SDS011;3931;42.260;23.116;2023-10-19T01:27:35;17.13;;;10.43;;
7773;SDS011;3931;42.260;23.116;2023-10-19T01:30:02;20.90;;;10.67;;
7773;SDS011;3931;42.260;23.116;2023-10-19T01:32:29;33.27;;;13.50;;
7773;SDS011;3931;42.260;23.116;2023-10-19T01:34:55;35.13;;;13.10;;
7773;SDS011;3931;42.260;23.116;2023-10-19T01:37:20;34.10;;;13.77;;
7773;SDS011;3931;42.260;23.116;2023-10-19T01:39:46;29.30;;;13.00;;
7773;SDS011;3931;42.260;23.116;2023-10-19T01:42:13;47.80;;;15.10;;
7773;SDS011;3931;42.260;23.116;2023-10-19T01:44:39;38.73;;;13.33;;
7773;SDS011;3931;42.260;23.116;2023-10-19T01:47:05;53.23;;;13.80;;
7773;SDS011;3931;42.260;23.116;2023-10-19T01:49:31;41.63;;;15.30;;
7773;SDS011;3931;42.260;23.116;2023-10-19T01:51:56;60.30;;;15.70;;
7773;SDS011;3931;42.260;23.116;2023-10-19T01:54:22;43.30;;;16.50;;
7773;SDS011;3931;42.260;23.116;2023-10-19T01:56:50;46.43;;;15.23;;
7773;SDS011;3931;42.260;23.116;2023-10-19T01:59:20;83.93;;;16.30;;
7773;SDS011;3931;42.260;23.116;2023-10-19T02:01:46;77.43;;;12.63;;
7773;SDS011;3931;42.260;23.116;2023-10-19T02:04:11;42.53;;;18.20;;
7773;SDS011;3931;42.260;23.116;2023-10-19T02:06:38;68.00;;;15.90;;
7773;SDS011;3931;42.260;23.116;2023-10-19T02:09:06;35.53;;;16.50;;
7773;SDS011;3931;42.260;23.116;2023-10-19T02:11:42;52.37;;;14.83;;
7773;SDS011;3931;42.260;23.116;2023-10-19T02:14:10;75.33;;;16.03;;
7773;SDS011;3931;42.260;23.116;2023-10-19T02:16:40;50.97;;;14.70;;
7773;SDS011;3931;42.260;23.116;2023-10-19T02:19:06;45.43;;;15.57;;
7773;SDS011;3931;42.260;23.116;2023-10-19T02:21:32;53.40;;;18.40;;
7773;SDS011;3931;42.260;23.116;2023-10-19T02:24:03;33.40;;;17.23;;
7773;SDS011;3931;42.260;23.116;2023-10-19T02:26:29;31.10;;;16.43;;
7773;SDS011;3931;42.260;23.116;2023-10-19T02:28:56;47.60;;;15.17;;
7773;SDS011;3931;42.260;23.116;2023-10-19T02:31:23;50.30;;;14.80;;
7773;SDS011;3931;42.260;23.116;2023-10-19T02:33:51;39.60;;;15.57;;
7773;SDS011;3931;42.260;23.116;2023-10-19T02:36:17;31.17;;;13.93;;
7773;SDS011;3931;42.260;23.116;2023-10-19T02:38:44;39.57;;;12.43;;
7773;SDS011;3931;42.260;23.116;2023-10-19T02:41:13;44.20;;;13.40;;
7773;SDS011;3931;42.260;23.116;2023-10-19T02:43:40;31.30;;;14.13;;
7773;SDS011;3931;42.260;23.116;2023-10-19T02:46:10;28.23;;;14.53;;
7773;SDS011;3931;42.260;23.116;2023-10-19T02:48:38;47.93;;;15.00;;
7773;SDS011;3931;42.260;23.116;2023-10-19T02:51:04;32.60;;;13.23;;
7773;SDS011;3931;42.260;23.116;2023-10-19T02:53:36;25.53;;;12.47;;
7773;SDS011;3931;42.260;23.116;2023-10-19T02:56:09;30.20;;;11.50;;
7773;SDS011;3931;42.260;23.116;2023-10-19T02:58:35;33.50;;;11.47;;
7773;SDS011;3931;42.260;23.116;2023-10-19T03:01:00;27.63;;;11.93;;
7773;SDS011;3931;42.260;23.116;2023-10-19T03:03:26;29.57;;;11.40;;
7773;SDS011;3931;42.260;23.116;2023-10-19T03:05:52;27.47;;;12.50;;
7773;SDS011;3931;42.260;23.116;2023-10-19T03:08:19;29.60;;;11.20;;
7773;SDS011;3931;42.260;23.116;2023-10-19T03:10:44;26.20;;;12.60;;
7773;SDS011;3931;42.260;23.116;2023-10-19T03:13:10;24.17;;;11.40;;
7773;SDS011;3931;42.260;23.116;2023-10-19T03:15:39;31.00;;;11.37;;
7773;SDS011;3931;42.260;23.116;2023-10-19T03:18:07;25.13;;;11.10;;
7773;SDS011;3931;42.260;23.116;2023-10-19T03:20:33;27.90;;;11.93;;
7773;SDS011;3931;42.260;23.116;2023-10-19T03:23:02;20.80;;;13.30;;
7773;SDS011;3931;42.260;23.116;2023-10-19T03:25:29;22.43;;;10.40;;
7773;SDS011;3931;42.260;23.116;2023-10-19T03:28:14;28.13;;;11.57;;
7773;SDS011;3931;42.260;23.116;2023-10-19T03:30:41;20.83;;;11.87;;
7773;SDS011;3931;42.260;23.116;2023-10-19T03:33:07;30.63;;;14.40;;
7773;SDS011;3931;42.260;23.116;2023-10-19T03:35:35;30.30;;;13.50;;
7773;SDS011;3931;42.260;23.116;2023-10-19T03:38:01;26.87;;;12.17;;
7773;SDS011;3931;42.260;23.116;2023-10-19T03:40:33;24.33;;;12.77;;
7773;SDS011;3931;42.260;23.116;2023-10-19T03:43:00;21.63;;;11.20;;
7773;SDS011;3931;42.260;23.116;2023-10-19T03:45:30;18.57;;;10.77;;
7773;SDS011;3931;42.260;23.116;2023-10-19T03:47:58;46.73;;;11.03;;
7773;SDS011;3931;42.260;23.116;2023-10-19T03:50:31;22.23;;;12.30;;
7773;SDS011;3931;42.260;23.116;2023-10-19T03:53:01;19.80;;;11.67;;
7773;SDS011;3931;42.260;23.116;2023-10-19T03:55:26;21.77;;;10.60;;
7773;SDS011;3931;42.260;23.116;2023-10-19T03:57:54;21.93;;;11.30;;
7773;SDS011;3931;42.260;23.116;2023-10-19T04:00:20;23.93;;;9.40;;
7773;SDS011;3931;42.260;23.116;2023-10-19T04:02:50;16.10;;;9.03;;
7773;SDS011;3931;42.260;23.116;2023-10-19T04:05:20;12.20;;;7.97;;
7773;SDS011;3931;42.260;23.116;2023-10-19T04:07:47;11.10;;;7.40;;
7773;SDS011;3931;42.260;23.116;2023-10-19T04:10:15;13.33;;;8.40;;
7773;SDS011;3931;42.260;23.116;2023-10-19T04:12:55;14.33;;;7.83;;
7773;SDS011;3931;42.260;23.116;2023-10-19T04:15:22;12.73;;;7.30;;
7773;SDS011;3931;42.260;23.116;2023-10-19T04:17:50;15.07;;;7.70;;
7773;SDS011;3931;42.260;23.116;2023-10-19T04:20:18;15.53;;;8.03;;
7773;SDS011;3931;42.260;23.116;2023-10-19T04:23:07;11.20;;;7.10;;
7773;SDS011;3931;42.260;23.116;2023-10-19T04:25:35;20.87;;;13.50;;
7773;SDS011;3931;42.260;23.116;2023-10-19T04:28:02;17.50;;;10.23;;
7773;SDS011;3931;42.260;23.116;2023-10-19T04:30:28;34.63;;;11.23;;
7773;SDS011;3931;42.260;23.116;2023-10-19T04:32:54;17.10;;;9.10;;
7773;SDS011;3931;42.260;23.116;2023-10-19T04:35:23;17.43;;;9.47;;
7773;SDS011;3931;42.260;23.116;2023-10-19T04:37:49;13.23;;;8.43;;
7773;SDS011;3931;42.260;23.116;2023-10-19T04:40:15;14.70;;;8.40;;
7773;SDS011;3931;42.260;23.116;2023-10-19T04:42:41;15.20;;;9.63;;
7773;SDS011;3931;42.260;23.116;2023-10-19T04:45:08;16.00;;;10.20;;
7773;SDS011;3931;42.260;23.116;2023-10-19T04:47:36;13.80;;;8.33;;
7773;SDS011;3931;42.260;23.116;2023-10-19T04:50:03;19.10;;;9.63;;
7773;SDS011;3931;42.260;23.116;2023-10-19T04:52:29;20.17;;;11.43;;
7773;SDS011;3931;42.260;23.116;2023-10-19T04:54:54;15.70;;;11.07;;
7773;SDS011;3931;42.260;23.116;2023-10-19T04:57:20;13.43;;;9.80;;
7773;SDS011;3931;42.260;23.116;2023-10-19T04:59:46;19.33;;;8.30;;
7773;SDS011;3931;42.260;23.116;2023-10-19T05:02:12;17.47;;;8.17;;
7773;SDS011;3931;42.260;23.116;2023-10-19T05:04:38;12.00;;;8.30;;
7773;SDS011;3931;42.260;23.116;2023-10-19T05:07:05;20.50;;;10.27;;
7773;SDS011;3931;42.260;23.116;2023-10-19T05:09:31;187.20;;;66.83;;
7773;SDS011;3931;42.260;23.116;2023-10-19T05:11:57;39.07;;;14.03;;
7773;SDS011;3931;42.260;23.116;2023-10-19T05:14:23;13.23;;;8.43;;
7773;SDS011;3931;42.260;23.116;2023-10-19T05:16:49;13.70;;;7.93;;
7773;SDS011;3931;42.260;23.116;2023-10-19T05:19:16;31.80;;;9.70;;
7773;SDS011;3931;42.260;23.116;2023-10-19T05:21:42;33.70;;;15.00;;
7773;SDS011;3931;42.260;23.116;2023-10-19T05:24:08;35.30;;;13.97;;
7773;SDS011;3931;42.260;23.116;2023-10-19T05:26:34;32.60;;;12.40;;
7773;SDS011;3931;42.260;23.116;2023-10-19T05:29:00;25.63;;;10.40;;
7773;SDS011;3931;42.260;23.116;2023-10-19T05:31:26;23.03;;;10.80;;
7773;SDS011;3931;42.260;23.116;2023-10-19T05:33:53;21.30;;;9.47;;
7773;SDS011;3931;42.260;23.116;2023-10-19T05:36:19;25.07;;;8.73;;
7773;SDS011;3931;42.260;23.116;2023-10-19T05:38:45;27.60;;;9.73;;
7773;SDS011;3931;42.260;23.116;2023-10-19T05:41:11;18.60;;;9.90;;
7773;SDS011;3931;42.260;23.116;2023-10-19T05:43:37;24.60;;;11.17;;
7773;SDS011;3931;42.260;23.116;2023-10-19T05:46:03;25.20;;;12.50;;
7773;SDS011;3931;42.260;23.116;2023-10-19T05:48:29;26.93;;;11.73;;
7773;SDS011;3931;42.260;23.116;2023-10-19T05:50:55;34.17;;;10.90;;
7773;SDS011;3931;42.260;23.116;2023-10-19T05:53:22;36.43;;;12.20;;
7773;SDS011;3931;42.260;23.116;2023-10-19T05:55:48;32.50;;;15.53;;
7773;SDS011;3931;42.260;23.116;2023-10-19T05:58:14;29.50;;;12.23;;
7773;SDS011;3931;42.260;23.116;2023-10-19T06:00:40;29.53;;;12.63;;
7773;SDS011;3931;42.260;23.116;2023-10-19T06:03:05;28.93;;;13.80;;
7773;SDS011;3931;42.260;23.116;2023-10-19T06:05:31;34.53;;;12.00;;
7773;SDS011;3931;42.260;23.116;2023-10-19T06:07:57;31.30;;;12.87;;
7773;SDS011;3931;42.260;23.116;2023-10-19T06:10:27;41.83;;;13.10;;
7773;SDS011;3931;42.260;23.116;2023-10-19T06:12:53;37.10;;;13.40;;
7773;SDS011;3931;42.260;23.116;2023-10-19T06:15:19;34.60;;;13.53;;
7773;SDS011;3931;42.260;23.116;2023-10-19T06:17:46;31.00;;;13.37;;
7773;SDS011;3931;42.260;23.116;2023-10-19T06:20:13;27.13;;;13.40;;
7773;SDS011;3931;42.260;23.116;2023-10-19T06:22:47;26.87;;;12.20;;
7773;SDS011;3931;42.260;23.116;2023-10-19T06:25:15;23.37;;;11.40;;
7773;SDS011;3931;42.260;23.116;2023-10-19T06:27:43;20.70;;;12.10;;
7773;SDS011;3931;42.260;23.116;2023-10-19T06:30:09;24.53;;;13.37;;
7773;SDS011;3931;42.260;23.116;2023-10-19T06:32:35;27.93;;;12.53;;
7773;SDS011;3931;42.260;23.116;2023-10-19T06:35:02;29.10;;;12.50;;
7773;SDS011;3931;42.260;23.116;2023-10-19T06:37:27;21.07;;;10.17;;
7773;SDS011;3931;42.260;23.116;2023-10-19T06:39:53;30.73;;;12.00;;
7773;SDS011;3931;42.260;23.116;2023-10-19T06:42:19;31.20;;;11.13;;
7773;SDS011;3931;42.260;23.116;2023-10-19T06:44:45;19.07;;;10.40;;
7773;SDS011;3931;42.260;23.116;2023-10-19T06:47:11;30.00;;;12.90;;
7773;SDS011;3931;42.260;23.116;2023-10-19T06:49:38;27.20;;;12.80;;
7773;SDS011;3931;42.260;23.116;2023-10-19T06:52:04;23.47;;;11.20;;
7773;SDS011;3931;42.260;23.116;2023-10-19T06:54:30;25.80;;;11.37;;
7773;SDS011;3931;42.260;23.116;2023-10-19T06:56:56;21.60;;;11.00;;
7773;SDS011;3931;42.260;23.116;2023-10-19T06:59:21;16.60;;;8.50;;
7773;SDS011;3931;42.260;23.116;2023-10-19T07:01:49;15.03;;;8.90;;
7773;SDS011;3931;42.260;23.116;2023-10-19T07:04:16;22.13;;;9.43;;
7773;SDS011;3931;42.260;23.116;2023-10-19T07:06:42;24.93;;;11.50;;
7773;SDS011;3931;42.260;23.116;2023-10-19T07:09:07;27.90;;;12.10;;
7773;SDS011;3931;42.260;23.116;2023-10-19T07:11:35;30.10;;;11.97;;
7773;SDS011;3931;42.260;23.116;2023-10-19T07:14:01;28.23;;;11.03;;
7773;SDS011;3931;42.260;23.116;2023-10-19T07:16:27;35.77;;;11.60;;
7773;SDS011;3931;42.260;23.116;2023-10-19T07:18:54;18.93;;;10.20;;
7773;SDS011;3931;42.260;23.116;2023-10-19T07:21:20;28.20;;;11.37;;
7773;SDS011;3931;42.260;23.116;2023-10-19T07:23:45;35.73;;;12.90;;
7773;SDS011;3931;42.260;23.116;2023-10-19T07:26:14;25.30;;;11.70;;
7773;SDS011;3931;42.260;23.116;2023-10-19T07:28:40;40.17;;;12.13;;
7773;SDS011;3931;42.260;23.116;2023-10-19T07:31:07;43.33;;;11.10;;
7773;SDS011;3931;42.260;23.116;2023-10-19T07:33:38;35.97;;;11.10;;
7773;SDS011;3931;42.260;23.116;2023-10-19T07:36:11;23.37;;;11.90;;
7773;SDS011;3931;42.260;23.116;2023-10-19T07:38:38;31.10;;;10.80;;
7773;SDS011;3931;42.260;23.116;2023-10-19T07:41:04;26.73;;;8.73;;
7773;SDS011;3931;42.260;23.116;2023-10-19T07:43:30;37.70;;;9.23;;
7773;SDS011;3931;42.260;23.116;2023-10-19T07:45:56;22.33;;;9.43;;
7773;SDS011;3931;42.260;23.116;2023-10-19T07:48:22;20.00;;;9.00;;
7773;SDS011;3931;42.260;23.116;2023-10-19T07:50:50;11.83;;;6.73;;
7773;SDS011;3931;42.260;23.116;2023-10-19T07:53:18;12.00;;;6.50;;
7773;SDS011;3931;42.260;23.116;2023-10-19T07:55:44;10.67;;;5.97;;
7773;SDS011;3931;42.260;23.116;2023-10-19T07:58:10;21.03;;;5.20;;
7773;SDS011;3931;42.260;23.116;2023-10-19T08:00:36;5.00;;;3.70;;
7773;SDS011;3931;42.260;23.116;2023-10-19T08:03:02;3.63;;;3.03;;
7773;SDS011;3931;42.260;23.116;2023-10-19T08:05:28;5.95;;;3.50;;
7773;SDS011;3931;42.260;23.116;2023-10-19T08:07:53;9.98;;;4.88;;
7773;SDS011;3931;42.260;23.116;2023-10-19T08:10:20;7.05;;;4.95;;
7773;SDS011;3931;42.260;23.116;2023-10-19T08:12:47;12.57;;;4.20;;
7773;SDS011;3931;42.260;23.116;2023-10-19T08:15:13;5.38;;;3.83;;
7773;SDS011;3931;42.260;23.116;2023-10-19T08:17:40;12.10;;;4.20;;
7773;SDS011;3931;42.260;23.116;2023-10-19T08:20:07;7.90;;;3.88;;
7773;SDS011;3931;42.260;23.116;2023-10-19T08:22:34;8.77;;;5.05;;
7773;SDS011;3931;42.260;23.116;2023-10-19T08:25:02;10.88;;;4.43;;
7773;SDS011;3931;42.260;23.116;2023-10-19T08:27:29;6.13;;;3.90;;
7773;SDS011;3931;42.260;23.116;2023-10-19T08:29:56;4.93;;;4.00;;
7773;SDS011;3931;42.260;23.116;2023-10-19T08:32:22;7.80;;;4.72;;
7773;SDS011;3931;42.260;23.116;2023-10-19T08:34:48;15.23;;;6.40;;
7773;SDS011;3931;42.260;23.116;2023-10-19T08:37:13;16.20;;;14.32;;
7773;SDS011;3931;42.260;23.116;2023-10-19T08:39:39;12.35;;;5.82;;
7773;SDS011;3931;42.260;23.116;2023-10-19T08:42:05;12.13;;;6.30;;
7773;SDS011;3931;42.260;23.116;2023-10-19T08:44:32;53.40;;;35.85;;
7773;SDS011;3931;42.260;23.116;2023-10-19T08:46:58;15.80;;;6.18;;
7773;SDS011;3931;42.260;23.116;2023-10-19T08:49:24;13.93;;;5.82;;
7773;SDS011;3931;42.260;23.116;2023-10-19T08:51:51;6.80;;;4.15;;
7773;SDS011;3931;42.260;23.116;2023-10-19T08:54:17;16.70;;;4.70;;
7773;SDS011;3931;42.260;23.116;2023-10-19T08:56:43;7.60;;;4.78;;
7773;SDS011;3931;42.260;23.116;2023-10-19T08:59:09;8.57;;;5.35;;
7773;SDS011;3931;42.260;23.116;2023-10-19T09:01:36;7.93;;;4.10;;
7773;SDS011;3931;42.260;23.116;2023-10-19T09:04:02;5.60;;;4.55;;
7773;SDS011;3931;42.260;23.116;2023-10-19T09:06:30;20.02;;;8.85;;
7773;SDS011;3931;42.260;23.116;2023-10-19T09:08:56;4.38;;;3.92;;
7773;SDS011;3931;42.260;23.116;2023-10-19T09:11:23;7.57;;;3.80;;
7773;SDS011;3931;42.260;23.116;2023-10-19T09:13:50;8.53;;;6.20;;
7773;SDS011;3931;42.260;23.116;2023-10-19T09:16:17;11.67;;;6.00;;
7773;SDS011;3931;42.260;23.116;2023-10-19T09:18:44;17.40;;;12.10;;
7773;SDS011;3931;42.260;23.116;2023-10-19T09:21:10;11.77;;;6.10;;
7773;SDS011;3931;42.260;23.116;2023-10-19T09:23:37;14.90;;;6.20;;
7773;SDS011;3931;42.260;23.116;2023-10-19T09:26:03;7.20;;;5.53;;
7773;SDS011;3931;42.260;23.116;2023-10-19T09:28:30;12.20;;;5.80;;
7773;SDS011;3931;42.260;23.116;2023-10-19T09:30:58;11.87;;;4.87;;
7773;SDS011;3931;42.260;23.116;2023-10-19T09:33:25;9.70;;;6.50;;
7773;SDS011;3931;42.260;23.116;2023-10-19T09:35:53;11.33;;;4.80;;
7773;SDS011;3931;42.260;23.116;2023-10-19T09:38:21;15.40;;;7.30;;
7773;SDS011;3931;42.260;23.116;2023-10-19T09:40:47;8.40;;;5.60;;
7773;SDS011;3931;42.260;23.116;2023-10-19T09:43:15;9.30;;;5.70;;
7773;SDS011;3931;42.260;23.116;2023-10-19T09:45:41;38.03;;;18.10;;
7773;SDS011;3931;42.260;23.116;2023-10-19T09:48:07;8.83;;;5.23;;
7773;SDS011;3931;42.260;23.116;2023-10-19T09:50:33;12.33;;;4.80;;
7773;SDS011;3931;42.260;23.116;2023-10-19T09:53:00;15.27;;;8.10;;
7773;SDS011;3931;42.260;23.116;2023-10-19T09:55:28;9.60;;;5.07;;
7773;SDS011;3931;42.260;23.116;2023-10-19T09:57:55;16.53;;;10.40;;
7773;SDS011;3931;42.260;23.116;2023-10-19T10:00:23;6.87;;;4.40;;
7773;SDS011;3931;42.260;23.116;2023-10-19T10:02:49;8.23;;;4.57;;
7773;SDS011;3931;42.260;23.116;2023-10-19T10:10:44;6.00;;;4.15;;
7773;SDS011;3931;42.260;23.116;2023-10-19T10:15:53;4.50;;;2.33;;
7773;SDS011;3931;42.260;23.116;2023-10-19T10:18:20;2.47;;;1.70;;
7773;SDS011;3931;42.260;23.116;2023-10-19T10:20:45;4.47;;;2.40;;
7773;SDS011;3931;42.260;23.116;2023-10-19T10:23:16;8.90;;;5.32;;
7773;SDS011;3931;42.260;23.116;2023-10-19T10:25:42;6.85;;;3.58;;
7773;SDS011;3931;42.260;23.116;2023-10-19T10:28:13;4.32;;;2.05;;
7773;SDS011;3931;42.260;23.116;2023-10-19T10:30:53;3.10;;;1.98;;
7773;SDS011;3931;42.260;23.116;2023-10-19T10:33:38;2.30;;;1.65;;
7773;SDS011;3931;42.260;23.116;2023-10-19T10:36:05;6.72;;;4.00;;
7773;SDS011;3931;42.260;23.116;2023-10-19T10:38:33;2.22;;;1.40;;
7773;SDS011;3931;42.260;23.116;2023-10-19T10:40:59;4.47;;;1.70;;
7773;SDS011;3931;42.260;23.116;2023-10-19T10:43:25;2.45;;;1.05;;
7773;SDS011;3931;42.260;23.116;2023-10-19T10:45:51;7.15;;;1.83;;
7773;SDS011;3931;42.260;23.116;2023-10-19T10:48:17;3.13;;;1.52;;
7773;SDS011;3931;42.260;23.116;2023-10-19T10:50:44;2.40;;;1.35;;
7773;SDS011;3931;42.260;23.116;2023-10-19T10:53:11;6.95;;;3.10;;
7773;SDS011;3931;42.260;23.116;2023-10-19T10:55:37;3.88;;;2.10;;
7773;SDS011;3931;42.260;23.116;2023-10-19T10:58:04;2.88;;;2.08;;
7773;SDS011;3931;42.260;23.116;2023-10-19T11:00:30;3.47;;;2.15;;
7773;SDS011;3931;42.260;23.116;2023-10-19T11:02:59;5.43;;;1.75;;
7773;SDS011;3931;42.260;23.116;2023-10-19T11:05:25;3.50;;;1.70;;
7773;SDS011;3931;42.260;23.116;2023-10-19T11:08:07;3.53;;;2.55;;
7773;SDS011;3931;42.260;23.116;2023-10-19T11:10:34;3.10;;;2.33;;
7773;SDS011;3931;42.260;23.116;2023-10-19T11:13:00;4.60;;;3.00;;
7773;SDS011;3931;42.260;23.116;2023-10-19T11:15:26;4.65;;;1.90;;
7773;SDS011;3931;42.260;23.116;2023-10-19T11:17:53;2.88;;;2.03;;
7773;SDS011;3931;42.260;23.116;2023-10-19T11:20:22;3.25;;;2.15;;
7773;SDS011;3931;42.260;23.116;2023-10-19T11:22:48;2.30;;;1.70;;
7773;SDS011;3931;42.260;23.116;2023-10-19T11:25:17;2.60;;;1.58;;
7773;SDS011;3931;42.260;23.116;2023-10-19T11:27:43;2.08;;;1.40;;
7773;SDS011;3931;42.260;23.116;2023-10-19T11:30:09;2.20;;;1.40;;
7773;SDS011;3931;42.260;23.116;2023-10-19T11:32:37;3.17;;;2.15;;
7773;SDS011;3931;42.260;23.116;2023-10-19T11:35:06;5.55;;;2.17;;
7773;SDS011;3931;42.260;23.116;2023-10-19T11:37:44;5.03;;;1.92;;
7773;SDS011;3931;42.260;23.116;2023-10-19T11:40:10;3.58;;;2.08;;
7773;SDS011;3931;42.260;23.116;2023-10-19T11:42:36;2.75;;;1.90;;
7773;SDS011;3931;42.260;23.116;2023-10-19T11:45:02;2.45;;;1.40;;
7773;SDS011;3931;42.260;23.116;2023-10-19T11:47:28;3.15;;;2.08;;
7773;SDS011;3931;42.260;23.116;2023-10-19T11:49:54;2.50;;;1.25;;
7773;SDS011;3931;42.260;23.116;2023-10-19T11:52:21;3.50;;;2.30;;
7773;SDS011;3931;42.260;23.116;2023-10-19T11:54:48;3.58;;;1.88;;
7773;SDS011;3931;42.260;23.116;2023-10-19T11:57:13;3.57;;;2.37;;
7773;SDS011;3931;42.260;23.116;2023-10-19T11:59:39;7.10;;;2.00;;
7773;SDS011;3931;42.260;23.116;2023-10-19T12:02:05;4.20;;;2.00;;
7773;SDS011;3931;42.260;23.116;2023-10-19T12:04:31;2.90;;;2.00;;
7773;SDS011;3931;42.260;23.116;2023-10-19T12:07:01;2.90;;;1.87;;
7773;SDS011;3931;42.260;23.116;2023-10-19T12:09:27;3.13;;;1.90;;
7773;SDS011;3931;42.260;23.116;2023-10-19T12:11:53;4.20;;;1.83;;
7773;SDS011;3931;42.260;23.116;2023-10-19T12:14:20;4.83;;;2.10;;
7773;SDS011;3931;42.260;23.116;2023-10-19T12:16:46;8.40;;;3.80;;
7773;SDS011;3931;42.260;23.116;2023-10-19T12:19:12;4.50;;;2.90;;
7773;SDS011;3931;42.260;23.116;2023-10-19T12:21:39;2.20;;;1.43;;
7773;SDS011;3931;42.260;23.116;2023-10-19T12:24:06;3.33;;;1.70;;
7773;SDS011;3931;42.260;23.116;2023-10-19T12:26:33;2.83;;;1.90;;
7773;SDS011;3931;42.260;23.116;2023-10-19T12:28:59;3.57;;;2.00;;
7773;SDS011;3931;42.260;23.116;2023-10-19T12:31:25;2.77;;;1.60;;
7773;SDS011;3931;42.260;23.116;2023-10-19T12:33:51;3.87;;;1.63;;
7773;SDS011;3931;42.260;23.116;2023-10-19T12:36:18;4.43;;;2.20;;
7773;SDS011;3931;42.260;23.116;2023-10-19T12:38:56;4.10;;;2.20;;
7773;SDS011;3931;42.260;23.116;2023-10-19T12:41:22;3.30;;;1.77;;
7773;SDS011;3931;42.260;23.116;2023-10-19T12:43:49;4.90;;;1.80;;
7773;SDS011;3931;42.260;23.116;2023-10-19T12:46:17;5.20;;;1.87;;
7773;SDS011;3931;42.260;23.116;2023-10-19T12:48:44;4.77;;;2.17;;
7773;SDS011;3931;42.260;23.116;2023-10-19T12:51:12;3.37;;;1.93;;
7773;SDS011;3931;42.260;23.116;2023-10-19T12:53:38;2.87;;;1.80;;
7773;SDS011;3931;42.260;23.116;2023-10-19T12:56:04;4.10;;;1.97;;
7773;SDS011;3931;42.260;23.116;2023-10-19T12:58:31;8.30;;;3.07;;
7773;SDS011;3931;42.260;23.116;2023-10-19T13:00:57;3.73;;;2.10;;
7773;SDS011;3931;42.260;23.116;2023-10-19T13:03:24;3.13;;;1.97;;
7773;SDS011;3931;42.260;23.116;2023-10-19T13:05:52;4.00;;;2.00;;
7773;SDS011;3931;42.260;23.116;2023-10-19T13:08:18;18.20;;;2.10;;
7773;SDS011;3931;42.260;23.116;2023-10-19T13:10:46;7.27;;;3.23;;
7773;SDS011;3931;42.260;23.116;2023-10-19T13:13:12;5.20;;;2.70;;
7773;SDS011;3931;42.260;23.116;2023-10-19T13:15:40;4.10;;;2.43;;
7773;SDS011;3931;42.260;23.116;2023-10-19T13:18:07;4.90;;;2.40;;
7773;SDS011;3931;42.260;23.116;2023-10-19T13:20:34;6.70;;;2.33;;
7773;SDS011;3931;42.260;23.116;2023-10-19T13:23:00;4.57;;;2.50;;
7773;SDS011;3931;42.260;23.116;2023-10-19T13:25:28;3.00;;;1.83;;
7773;SDS011;3931;42.260;23.116;2023-10-19T13:28:05;4.73;;;2.10;;
7773;SDS011;3931;42.260;23.116;2023-10-19T13:30:35;3.87;;;2.23;;
7773;SDS011;3931;42.260;23.116;2023-10-19T13:33:01;3.90;;;2.30;;
7773;SDS011;3931;42.260;23.116;2023-10-19T13:35:30;8.27;;;2.90;;
7773;SDS011;3931;42.260;23.116;2023-10-19T13:37:56;5.93;;;2.57;;
7773;SDS011;3931;42.260;23.116;2023-10-19T13:40:22;4.60;;;2.63;;
7773;SDS011;3931;42.260;23.116;2023-10-19T13:42:48;5.20;;;2.50;;
7773;SDS011;3931;42.260;23.116;2023-10-19T13:45:14;4.00;;;2.40;;
7773;SDS011;3931;42.260;23.116;2023-10-19T13:47:40;6.00;;;2.10;;
7773;SDS011;3931;42.260;23.116;2023-10-19T13:50:06;4.93;;;2.10;;
7773;SDS011;3931;42.260;23.116;2023-10-19T13:52:33;3.63;;;2.20;;
7773;SDS011;3931;42.260;23.116;2023-10-19T13:55:00;4.30;;;2.10;;
7773;SDS011;3931;42.260;23.116;2023-10-19T13:57:25;3.70;;;2.33;;
7773;SDS011;3931;42.260;23.116;2023-10-19T13:59:51;4.53;;;2.10;;
7773;SDS011;3931;42.260;23.116;2023-10-19T14:02:18;4.13;;;2.07;;
7773;SDS011;3931;42.260;23.116;2023-10-19T14:04:44;4.00;;;2.40;;
7773;SDS011;3931;42.260;23.116;2023-10-19T14:07:11;4.60;;;2.60;;
7773;SDS011;3931;42.260;23.116;2023-10-19T14:09:37;7.10;;;2.43;;
7773;SDS011;3931;42.260;23.116;2023-10-19T14:12:03;8.60;;;2.40;;
7773;SDS011;3931;42.260;23.116;2023-10-19T14:14:30;8.20;;;2.60;;
7773;SDS011;3931;42.260;23.116;2023-10-19T14:16:56;9.63;;;2.80;;
7773;SDS011;3931;42.260;23.116;2023-10-19T14:19:23;4.27;;;2.13;;
7773;SDS011;3931;42.260;23.116;2023-10-19T14:21:49;10.37;;;3.20;;
7773;SDS011;3931;42.260;23.116;2023-10-19T14:24:16;6.97;;;3.47;;
7773;SDS011;3931;42.260;23.116;2023-10-19T14:26:44;6.70;;;2.50;;
7773;SDS011;3931;42.260;23.116;2023-10-19T14:29:11;7.23;;;3.20;;
7773;SDS011;3931;42.260;23.116;2023-10-19T14:31:38;9.13;;;2.80;;
7773;SDS011;3931;42.260;23.116;2023-10-19T14:34:04;8.43;;;2.90;;
7773;SDS011;3931;42.260;23.116;2023-10-19T14:36:29;4.40;;;2.53;;
7773;SDS011;3931;42.260;23.116;2023-10-19T14:38:56;7.00;;;3.27;;
7773;SDS011;3931;42.260;23.116;2023-10-19T14:41:21;6.10;;;2.80;;
7773;SDS011;3931;42.260;23.116;2023-10-19T14:43:48;8.33;;;4.80;;
7773;SDS011;3931;42.260;23.116;2023-10-19T14:46:14;9.47;;;4.73;;
7773;SDS011;3931;42.260;23.116;2023-10-19T14:48:41;5.57;;;3.83;;
7773;SDS011;3931;42.260;23.116;2023-10-19T14:51:06;12.60;;;4.00;;
7773;SDS011;3931;42.260;23.116;2023-10-19T14:53:32;7.60;;;3.73;;
7773;SDS011;3931;42.260;23.116;2023-10-19T14:55:58;8.50;;;4.83;;